Time;durP1;ratioP1;P1;durP2;ratioP2;P2;SDS_P1;SDS_P2;PMS_P1;PMS_P2;Temp;Humidity;BMP_temperature;BMP_pressure;BME280_temperature;BME280_humidity;BME280_pressure;Samples;Min_cycle;Max_cycle;Signal;HPM_P1;HPM_P2
2021/09/21 00:00:31;;;;;;;0.60;0.60;;;17.70;99.90;;;;;;5013793;28;20508;-74
2021/09/21 00:02:57;;;;;;;0.88;0.35;;;17.80;99.90;;;;;;5013854;28;20049;-75
2021/09/21 00:05:23;;;;;;;1.10;0.40;;;17.70;99.90;;;;;;5013645;28;20030;-74
2021/09/21 00:07:49;;;;;;;0.88;0.70;;;17.70;99.90;;;;;;5013918;28;20018;-74
2021/09/21 00:10:16;;;;;;;0.40;0.40;;;17.70;99.90;;;;;;5013673;28;20181;-74
2021/09/21 00:12:42;;;;;;;1.35;0.40;;;17.70;99.90;;;;;;5013502;28;20420;-74
2021/09/21 00:15:11;;;;;;;0.50;0.50;;;17.70;99.90;;;;;;5013616;28;20026;-74
2021/09/21 00:17:38;;;;;;;1.45;0.40;;;17.70;99.90;;;;;;5013508;28;20033;-74
2021/09/21 00:20:05;;;;;;;0.35;0.35;;;17.70;99.90;;;;;;5012127;28;20049;-74
2021/09/21 00:22:30;;;;;;;0.35;0.35;;;17.70;99.90;;;;;;5012518;28;20019;-74
2021/09/21 00:24:56;;;;;;;7.03;0.57;;;17.60;99.90;;;;;;5015951;28;20091;-74
2021/09/21 00:27:22;;;;;;;0.35;0.35;;;17.60;99.90;;;;;;5013237;28;20503;-74
2021/09/21 00:29:48;;;;;;;0.50;0.40;;;17.60;99.90;;;;;;5013397;28;20080;-74
2021/09/21 00:32:16;;;;;;;0.93;0.30;;;17.60;99.90;;;;;;5013195;28;20117;-74
2021/09/21 00:34:43;;;;;;;0.35;0.35;;;17.60;99.90;;;;;;5013131;28;20030;-74
2021/09/21 00:37:11;;;;;;;0.90;0.47;;;17.60;99.90;;;;;;5013270;28;20022;-74
2021/09/21 00:39:38;;;;;;;0.60;0.30;;;17.70;99.90;;;;;;5013375;28;20080;-74
2021/09/21 00:42:05;;;;;;;0.50;0.50;;;17.70;99.90;;;;;;5013036;28;20503;-74
2021/09/21 00:44:31;;;;;;;0.30;0.30;;;17.70;99.90;;;;;;5013028;28;20029;-74
2021/09/21 00:46:57;;;;;;;0.40;0.40;;;17.70;99.90;;;;;;5013168;28;20036;-74
2021/09/21 00:49:23;;;;;;;0.50;0.50;;;17.60;99.90;;;;;;5012977;28;20041;-74
2021/09/21 00:51:49;;;;;;;0.50;0.50;;;17.60;99.90;;;;;;5011385;28;20411;-74
2021/09/21 00:54:15;;;;;;;0.40;0.38;;;17.50;99.90;;;;;;5012881;28;20042;-74
2021/09/21 00:56:42;;;;;;;0.45;0.45;;;17.60;99.90;;;;;;5011400;28;20173;-74
2021/09/21 00:59:07;;;;;;;0.30;0.30;;;17.60;99.90;;;;;;5012771;28;20030;-74
2021/09/21 01:01:33;;;;;;;2.72;0.57;;;17.50;99.90;;;;;;5012656;28;20018;-74
2021/09/21 01:04:01;;;;;;;0.75;0.38;;;17.60;99.90;;;;;;5012517;28;20018;-74
2021/09/21 01:06:26;;;;;;;1.38;0.50;;;17.60;99.90;;;;;;5012774;28;20026;-74
2021/09/21 01:08:52;;;;;;;0.50;0.50;;;17.60;99.90;;;;;;5011362;28;20373;-74
2021/09/21 01:11:18;;;;;;;0.60;0.50;;;17.60;99.90;;;;;;5012387;28;20025;-74
2021/09/21 01:13:43;;;;;;;0.32;0.32;;;17.50;99.90;;;;;;5011308;28;20446;-74
2021/09/21 01:16:09;;;;;;;1.40;0.52;;;17.40;99.90;;;;;;5012482;28;20017;-74
2021/09/21 01:18:35;;;;;;;0.38;0.38;;;17.40;99.90;;;;;;5012332;28;20029;-74
2021/09/21 01:21:10;;;;;;;0.30;0.30;;;17.40;99.90;;;;;;5012594;28;20022;-74
2021/09/21 01:23:45;;;;;;;0.38;0.38;;;17.50;99.90;;;;;;5012439;28;20101;-74
2021/09/21 01:26:10;;;;;;;1.33;0.80;;;17.50;99.90;;;;;;5011074;28;20703;-74
2021/09/21 01:28:36;;;;;;;3.00;0.70;;;17.50;99.90;;;;;;5012354;28;20564;-74
2021/09/21 01:31:02;;;;;;;0.40;0.40;;;17.60;99.90;;;;;;5012082;28;20264;-75
2021/09/21 01:33:28;;;;;;;0.40;0.40;;;17.60;99.90;;;;;;5012014;28;20083;-74
2021/09/21 01:35:54;;;;;;;0.20;0.20;;;17.60;99.90;;;;;;5012156;28;20014;-74
2021/09/21 01:38:19;;;;;;;0.40;0.40;;;17.70;99.90;;;;;;5012046;28;20121;-74
2021/09/21 01:40:45;;;;;;;0.40;0.40;;;17.70;99.90;;;;;;5012025;28;20498;-75
2021/09/21 01:43:11;;;;;;;0.40;0.40;;;17.70;99.90;;;;;;5011942;28;20022;-74
2021/09/21 01:45:37;;;;;;;0.43;0.43;;;17.70;99.90;;;;;;5012084;28;20380;-74
2021/09/21 01:48:02;;;;;;;3.70;0.65;;;17.70;99.90;;;;;;5012107;28;20030;-75
2021/09/21 01:50:34;;;;;;;0.63;0.50;;;17.70;99.90;;;;;;5011905;28;20026;-74
2021/09/21 02:00:59;;;;;;;0.40;0.40;;;17.80;99.90;;;;;;5011962;28;20064;-74
2021/09/21 02:03:24;;;;;;;0.57;0.40;;;17.80;99.90;;;;;;5011613;28;20026;-74
2021/09/21 02:05:50;;;;;;;0.20;0.20;;;17.80;99.90;;;;;;5010445;28;20498;-75
2021/09/21 02:08:17;;;;;;;0.63;0.63;;;17.80;99.90;;;;;;5011949;28;20018;-74
2021/09/21 02:10:43;;;;;;;6.10;0.55;;;17.70;99.90;;;;;;5010383;28;20404;-74
2021/09/21 02:13:09;;;;;;;1.85;0.50;;;17.70;99.90;;;;;;5011602;28;20040;-75
2021/09/21 02:15:35;;;;;;;0.50;0.50;;;17.70;99.90;;;;;;5011838;28;20022;-75
2021/09/21 02:18:01;;;;;;;0.40;0.40;;;17.60;99.90;;;;;;5011483;28;20032;-74
2021/09/21 02:20:28;;;;;;;2.42;0.47;;;17.70;99.90;;;;;;5013967;28;20080;-74
2021/09/21 02:22:54;;;;;;;0.43;0.43;;;17.70;99.90;;;;;;5011695;28;20025;-74
2021/09/21 02:25:20;;;;;;;0.82;0.30;;;17.70;99.90;;;;;;5011551;28;20033;-74
2021/09/21 02:27:46;;;;;;;0.40;0.40;;;17.70;99.90;;;;;;5011627;28;20104;-74
2021/09/21 02:30:12;;;;;;;0.47;0.40;;;17.70;99.90;;;;;;5010145;28;20438;-74
2021/09/21 02:32:39;;;;;;;0.88;0.50;;;17.60;99.90;;;;;;5011362;28;20053;-75
2021/09/21 02:35:05;;;;;;;1.65;0.50;;;17.60;99.90;;;;;;5010256;28;20109;-75
2021/09/21 02:37:31;;;;;;;0.40;0.40;;;17.60;99.90;;;;;;5010268;28;20053;-74
2021/09/21 02:39:57;;;;;;;1.40;0.40;;;17.60;99.90;;;;;;5011270;28;20484;-74
2021/09/21 02:42:22;;;;;;;2.35;0.40;;;17.60;99.90;;;;;;5011505;28;20108;-74
2021/09/21 02:44:48;;;;;;;0.30;0.30;;;17.60;99.90;;;;;;5010090;28;20052;-74
2021/09/21 02:47:14;;;;;;;0.50;0.50;;;17.60;99.90;;;;;;5014189;28;20026;-74
2021/09/21 02:49:40;;;;;;;2.92;0.85;;;17.60;99.90;;;;;;5015386;28;20492;-74
2021/09/21 02:52:06;;;;;;;0.30;0.30;;;17.60;99.90;;;;;;5014769;28;20043;-74
2021/09/21 02:54:32;;;;;;;0.50;0.50;;;17.60;99.90;;;;;;5015264;28;20022;-74
2021/09/21 02:56:57;;;;;;;1.48;0.47;;;17.60;99.90;;;;;;5015073;28;20037;-74
2021/09/21 02:59:23;;;;;;;1.00;0.47;;;17.70;99.90;;;;;;5014872;28;20026;-74
2021/09/21 03:01:50;;;;;;;1.48;0.40;;;17.60;99.90;;;;;;5014883;28;20145;-74
2021/09/21 03:04:26;;;;;;;0.40;0.40;;;17.70;99.90;;;;;;5014800;28;20025;-74
2021/09/21 03:07:02;;;;;;;0.50;0.50;;;17.60;99.90;;;;;;5015085;28;20018;-74
2021/09/21 03:12:13;;;;;;;0.52;0.45;;;17.60;99.90;;;;;;5014893;28;20117;-75
2021/09/21 03:17:27;;;;;;;0.68;0.50;;;17.60;99.90;;;;;;5014976;28;20053;-75
2021/09/21 03:19:57;;;;;;;0.40;0.40;;;17.60;99.90;;;;;;5014574;28;20176;-74
2021/09/21 03:22:23;;;;;;;1.23;0.52;;;17.60;99.90;;;;;;5014365;28;20431;-75
2021/09/21 03:24:50;;;;;;;0.70;0.35;;;17.50;99.90;;;;;;5014625;28;20030;-74
2021/09/21 03:27:16;;;;;;;0.43;0.43;;;17.40;99.90;;;;;;5014453;28;20010;-75
2021/09/21 03:29:42;;;;;;;0.40;0.40;;;17.40;99.90;;;;;;5014425;28;20088;-74
2021/09/21 03:32:08;;;;;;;0.43;0.43;;;17.50;99.90;;;;;;5013128;28;20030;-74
2021/09/21 03:34:37;;;;;;;0.60;0.60;;;17.50;99.90;;;;;;5014200;28;20041;-74
2021/09/21 03:37:10;;;;;;;0.63;0.40;;;17.50;99.90;;;;;;5014192;28;20084;-74
2021/09/21 03:39:37;;;;;;;0.82;0.40;;;17.50;99.90;;;;;;5014179;28;20038;-74
2021/09/21 03:42:03;;;;;;;1.90;0.45;;;17.50;99.90;;;;;;5014219;28;20586;-75
2021/09/21 03:44:29;;;;;;;0.50;0.50;;;17.50;99.90;;;;;;5014333;28;20076;-74
2021/09/21 03:46:55;;;;;;;3.70;0.60;;;17.50;99.90;;;;;;5014169;28;20022;-74
2021/09/21 03:49:22;;;;;;;1.63;0.40;;;17.50;99.90;;;;;;5014035;28;20084;-75
2021/09/21 03:51:49;;;;;;;1.75;0.40;;;17.50;99.90;;;;;;5013830;28;20034;-75
2021/09/21 03:54:15;;;;;;;1.77;0.60;;;17.40;99.90;;;;;;5012638;28;20033;-75
2021/09/21 03:56:42;;;;;;;0.55;0.55;;;17.40;99.90;;;;;;5013628;28;20100;-74
2021/09/21 03:59:08;;;;;;;0.50;0.50;;;17.40;99.90;;;;;;5013212;28;20029;-74
2021/09/21 04:01:34;;;;;;;0.40;0.40;;;17.40;99.90;;;;;;5013817;28;20104;-74
2021/09/21 04:04:01;;;;;;;3.22;0.68;;;17.40;99.90;;;;;;5013784;28;20018;-74
2021/09/21 04:06:27;;;;;;;0.40;0.40;;;17.40;99.90;;;;;;5013824;28;20475;-74
2021/09/21 04:08:53;;;;;;;1.63;0.75;;;17.50;99.90;;;;;;5013763;28;20048;-75
2021/09/21 04:11:20;;;;;;;2.53;0.60;;;17.50;99.90;;;;;;5013734;28;20041;-74
2021/09/21 04:13:47;;;;;;;0.93;0.70;;;17.50;99.90;;;;;;5016206;28;20018;-74
2021/09/21 04:16:13;;;;;;;0.88;0.50;;;17.50;99.90;;;;;;5013445;28;20029;-75
2021/09/21 04:18:39;;;;;;;0.45;0.45;;;17.50;99.90;;;;;;5013640;28;20022;-74
2021/09/21 04:21:05;;;;;;;1.52;0.40;;;17.60;99.90;;;;;;5013404;28;20018;-75
2021/09/21 04:23:31;;;;;;;0.50;0.50;;;17.60;99.90;;;;;;5013567;28;20061;-74
2021/09/21 04:25:57;;;;;;;2.20;0.45;;;17.60;99.90;;;;;;5013402;28;20018;-74
2021/09/21 04:28:23;;;;;;;0.50;0.50;;;17.60;99.90;;;;;;5013540;28;20496;-74
2021/09/21 04:30:51;;;;;;;0.60;0.60;;;17.60;99.90;;;;;;5013391;28;20033;-74
2021/09/21 04:33:17;;;;;;;0.57;0.57;;;17.60;99.90;;;;;;5011825;28;20045;-74
2021/09/21 04:35:43;;;;;;;0.50;0.50;;;17.60;99.90;;;;;;5013343;28;20040;-74
2021/09/21 04:38:10;;;;;;;0.40;0.40;;;17.60;99.90;;;;;;5011785;28;20026;-74
2021/09/21 04:40:36;;;;;;;0.40;0.40;;;17.60;99.90;;;;;;5011900;28;20503;-75
2021/09/21 04:43:03;;;;;;;1.40;0.45;;;17.60;99.90;;;;;;5012872;28;20036;-74
2021/09/21 04:45:30;;;;;;;3.20;0.60;;;17.50;99.90;;;;;;5013262;28;20109;-75
2021/09/21 04:47:55;;;;;;;0.43;0.32;;;17.50;99.90;;;;;;5013073;28;20022;-74
2021/09/21 04:50:21;;;;;;;0.93;0.50;;;17.50;99.90;;;;;;5012841;28;20030;-74
2021/09/21 04:52:47;;;;;;;0.70;0.60;;;17.50;99.90;;;;;;5012839;28;20037;-74
2021/09/21 04:55:13;;;;;;;2.80;0.50;;;17.50;99.90;;;;;;5010624;28;20030;-74
2021/09/21 04:57:38;;;;;;;2.30;0.75;;;17.50;99.90;;;;;;5011500;28;20492;-74
2021/09/21 05:00:06;;;;;;;0.90;0.82;;;17.50;99.90;;;;;;5011335;28;20064;-75
2021/09/21 05:02:33;;;;;;;0.95;0.47;;;17.50;99.90;;;;;;5012373;28;20026;-74
2021/09/21 05:05:02;;;;;;;0.77;0.77;;;17.50;99.90;;;;;;5012800;28;20080;-75
2021/09/21 05:07:28;;;;;;;1.08;0.60;;;17.50;99.90;;;;;;5012705;28;20026;-74
2021/09/21 05:09:54;;;;;;;1.35;1.20;;;17.50;99.90;;;;;;5012248;28;20022;-74
2021/09/21 05:12:20;;;;;;;0.50;0.50;;;17.50;99.90;;;;;;5011597;28;20168;-74
2021/09/21 05:14:46;;;;;;;0.52;0.52;;;17.50;99.90;;;;;;5011671;28;20026;-74
2021/09/21 05:17:12;;;;;;;0.47;0.47;;;17.50;99.90;;;;;;5011454;28;20017;-74
2021/09/21 05:19:37;;;;;;;0.98;0.47;;;17.50;99.90;;;;;;5011584;28;20408;-74
2021/09/21 05:22:03;;;;;;;3.90;0.60;;;17.50;99.90;;;;;;5011450;28;20030;-74
2021/09/21 05:24:29;;;;;;;0.45;0.45;;;17.60;99.90;;;;;;5011930;28;20026;-74
2021/09/21 05:26:57;;;;;;;0.40;0.40;;;17.60;99.90;;;;;;5012547;28;20028;-74
2021/09/21 05:29:23;;;;;;;1.85;0.50;;;17.60;99.90;;;;;;5010248;28;20449;-75
2021/09/21 05:31:49;;;;;;;0.57;0.57;;;17.60;99.90;;;;;;5042945;28;20070;-76
2021/09/21 05:34:15;;;;;;;0.95;0.80;;;17.60;99.90;;;;;;5010930;28;20433;-76
2021/09/21 05:36:41;;;;;;;0.50;0.50;;;17.60;99.90;;;;;;5011917;28;20040;-76
2021/09/21 05:39:07;;;;;;;1.48;0.60;;;17.60;99.90;;;;;;5012230;28;20468;-76
2021/09/21 05:41:33;;;;;;;0.73;0.60;;;17.60;99.90;;;;;;5012907;28;20040;-76
2021/09/21 05:43:59;;;;;;;0.50;0.50;;;17.60;99.90;;;;;;5013368;28;20097;-76
2021/09/21 05:46:25;;;;;;;1.75;0.60;;;17.60;99.90;;;;;;5013499;28;20104;-76
2021/09/21 05:48:52;;;;;;;0.77;0.50;;;17.70;99.90;;;;;;5010757;28;20034;-76
2021/09/21 05:51:18;;;;;;;0.63;0.60;;;17.70;99.90;;;;;;5011874;28;20018;-76
2021/09/21 05:53:44;;;;;;;1.10;0.93;;;17.70;99.90;;;;;;5012735;28;20550;-76
2021/09/21 05:56:09;;;;;;;0.93;0.50;;;17.70;99.90;;;;;;5011730;28;20026;-76
2021/09/21 05:58:35;;;;;;;0.70;0.70;;;17.80;99.90;;;;;;5013247;28;20057;-76
2021/09/21 06:01:02;;;;;;;0.95;0.57;;;17.70;99.90;;;;;;5013000;28;20026;-76
2021/09/21 06:03:28;;;;;;;0.52;0.52;;;17.80;99.90;;;;;;5012959;28;20530;-76
2021/09/21 06:05:58;;;;;;;0.75;0.68;;;17.80;99.90;;;;;;5011325;28;20018;-76
2021/09/21 06:08:25;;;;;;;2.15;1.13;;;17.90;99.90;;;;;;5041609;28;20030;-76
2021/09/21 06:10:50;;;;;;;0.70;0.70;;;17.90;99.90;;;;;;5010813;28;20494;-76
2021/09/21 06:13:16;;;;;;;2.17;0.50;;;17.90;99.90;;;;;;5011008;28;20018;-76
2021/09/21 06:15:42;;;;;;;0.50;0.50;;;18.00;99.90;;;;;;5009803;28;20030;-76
2021/09/21 06:18:07;;;;;;;0.50;0.50;;;18.00;99.90;;;;;;5012047;28;20473;-76
2021/09/21 06:20:33;;;;;;;0.85;0.68;;;18.00;99.90;;;;;;5015741;28;20022;-76
2021/09/21 06:22:59;;;;;;;1.27;0.50;;;18.00;99.90;;;;;;5035661;28;20059;-76
2021/09/21 06:25:25;;;;;;;2.15;0.50;;;18.00;99.90;;;;;;5034587;28;20072;-75
2021/09/21 06:27:50;;;;;;;0.70;0.70;;;18.10;99.90;;;;;;5034189;28;20036;-75
2021/09/21 06:30:17;;;;;;;0.52;0.52;;;18.10;99.90;;;;;;5034182;28;20394;-75
2021/09/21 06:32:43;;;;;;;0.60;0.60;;;18.10;99.90;;;;;;5066016;28;20060;-75
2021/09/21 06:35:09;;;;;;;0.70;0.70;;;18.10;99.90;;;;;;5017284;28;20030;-75
2021/09/21 06:37:35;;;;;;;0.40;0.40;;;18.10;99.90;;;;;;5015689;28;20029;-75
2021/09/21 06:40:02;;;;;;;1.65;0.73;;;18.20;99.90;;;;;;5015347;28;20037;-75
2021/09/21 06:42:33;;;;;;;2.67;0.60;;;18.20;99.90;;;;;;5015298;28;20104;-75
2021/09/21 06:44:59;;;;;;;2.08;0.65;;;18.20;99.90;;;;;;5015408;28;20018;-75
2021/09/21 06:47:25;;;;;;;1.73;0.77;;;18.20;99.90;;;;;;5015443;28;20034;-75
2021/09/21 06:49:50;;;;;;;2.53;0.80;;;18.30;99.90;;;;;;5014012;28;20075;-75
2021/09/21 06:52:16;;;;;;;4.03;0.88;;;18.30;99.90;;;;;;5013649;28;20038;-75
2021/09/21 06:54:42;;;;;;;0.50;0.50;;;18.30;99.90;;;;;;5015313;28;20045;-75
2021/09/21 06:57:07;;;;;;;0.80;0.70;;;18.40;99.90;;;;;;5014930;28;20373;-75
2021/09/21 06:59:33;;;;;;;0.50;0.50;;;18.40;99.90;;;;;;5015151;28;20026;-75
2021/09/21 07:01:59;;;;;;;0.80;0.70;;;18.40;99.90;;;;;;5015026;28;20029;-75
2021/09/21 07:04:25;;;;;;;1.17;1.02;;;18.40;99.90;;;;;;5014957;28;20022;-75
2021/09/21 07:06:50;;;;;;;1.95;0.70;;;18.40;99.90;;;;;;5015023;28;20022;-75
2021/09/21 07:09:16;;;;;;;0.65;0.63;;;18.30;99.90;;;;;;5014816;28;20033;-75
2021/09/21 07:11:42;;;;;;;0.90;0.60;;;18.30;99.90;;;;;;5014751;28;20088;-75
2021/09/21 07:14:08;;;;;;;1.02;0.60;;;18.40;99.90;;;;;;5014993;28;20034;-75
2021/09/21 07:16:33;;;;;;;2.72;0.57;;;18.40;99.90;;;;;;5014765;28;20017;-75
2021/09/21 07:18:59;;;;;;;0.70;0.70;;;18.40;99.90;;;;;;5014668;28;20488;-75
2021/09/21 07:21:25;;;;;;;3.65;0.65;;;18.40;99.90;;;;;;5014820;28;20018;-75
2021/09/21 07:23:51;;;;;;;1.40;0.75;;;18.40;99.90;;;;;;5014629;28;20049;-75
2021/09/21 07:26:17;;;;;;;0.82;0.57;;;18.40;99.90;;;;;;5013326;28;20396;-75
2021/09/21 07:28:43;;;;;;;1.33;1.02;;;18.40;99.90;;;;;;5014741;28;20030;-75
2021/09/21 07:31:09;;;;;;;0.93;0.93;;;18.40;99.90;;;;;;5014422;28;20029;-75
2021/09/21 07:33:34;;;;;;;2.05;1.00;;;18.40;99.90;;;;;;5014185;28;20396;-75
2021/09/21 07:36:00;;;;;;;2.40;1.50;;;18.50;99.90;;;;;;5014328;28;20030;-75
2021/09/21 07:38:26;;;;;;;1.55;1.42;;;18.60;99.90;;;;;;5014391;28;20030;-75
2021/09/21 07:40:52;;;;;;;3.42;1.40;;;18.60;99.90;;;;;;5013072;28;20021;-75
2021/09/21 07:43:17;;;;;;;2.15;1.20;;;18.60;99.90;;;;;;5014191;28;20034;-75
2021/09/21 07:45:43;;;;;;;5.43;1.60;;;18.70;99.90;;;;;;5014256;28;20061;-75
2021/09/21 07:48:10;;;;;;;2.85;1.40;;;18.70;99.90;;;;;;5014384;28;20096;-75
2021/09/21 07:50:35;;;;;;;4.35;1.50;;;18.70;99.90;;;;;;5014198;28;20563;-75
2021/09/21 07:53:02;;;;;;;5.35;2.03;;;18.80;99.90;;;;;;5013932;28;20121;-75
2021/09/21 07:55:27;;;;;;;2.05;1.50;;;18.90;99.90;;;;;;5012970;28;20030;-75
2021/09/21 07:57:53;;;;;;;5.22;1.35;;;18.90;99.90;;;;;;5014033;28;20096;-75
2021/09/21 08:00:20;;;;;;;1.52;1.40;;;19.00;99.90;;;;;;5013883;28;20030;-75
2021/09/21 08:02:46;;;;;;;1.30;1.20;;;19.00;99.90;;;;;;5014020;28;20032;-75
2021/09/21 08:05:13;;;;;;;4.45;1.95;;;19.10;99.90;;;;;;5013778;28;20267;-75
2021/09/21 08:07:40;;;;;;;4.57;2.00;;;19.10;99.90;;;;;;5012657;28;20041;-75
2021/09/21 08:10:08;;;;;;;2.03;1.45;;;19.20;99.90;;;;;;5013809;28;20022;-75
2021/09/21 08:12:33;;;;;;;3.45;2.10;;;19.30;99.90;;;;;;5013850;28;20416;-75
2021/09/21 08:15:00;;;;;;;2.65;1.90;;;19.30;99.90;;;;;;5013693;28;20044;-75
2021/09/21 08:17:27;;;;;;;2.47;2.03;;;19.40;99.90;;;;;;5013777;28;20108;-75
2021/09/21 08:19:54;;;;;;;3.75;2.40;;;19.40;99.90;;;;;;5030398;28;20467;-75
2021/09/21 08:22:20;;;;;;;5.03;2.22;;;19.40;99.90;;;;;;5033276;28;20030;-75
2021/09/21 08:24:47;;;;;;;4.20;2.67;;;19.40;99.90;;;;;;5033123;28;20403;-75
2021/09/21 08:27:14;;;;;;;2.10;1.90;;;19.30;99.90;;;;;;5033413;28;20104;-75
2021/09/21 08:29:40;;;;;;;4.38;2.40;;;19.40;99.90;;;;;;5032013;28;20032;-75
2021/09/21 08:32:06;;;;;;;4.35;2.38;;;19.50;99.90;;;;;;5031846;28;20033;-75
2021/09/21 08:34:32;;;;;;;3.72;2.47;;;19.50;99.90;;;;;;5020974;28;20030;-75
2021/09/21 08:36:59;;;;;;;4.40;2.40;;;19.60;99.90;;;;;;5013357;28;20495;-75
2021/09/21 08:39:25;;;;;;;2.00;1.60;;;19.60;99.90;;;;;;5013139;28;20104;-75
2021/09/21 08:41:52;;;;;;;4.53;1.98;;;19.60;99.90;;;;;;5013152;28;20125;-75
2021/09/21 08:44:18;;;;;;;1.63;1.50;;;19.70;99.90;;;;;;5011258;28;20037;-75
2021/09/21 08:46:45;;;;;;;1.40;1.35;;;19.70;99.90;;;;;;5013083;28;20476;-75
2021/09/21 08:49:11;;;;;;;1.60;1.50;;;19.80;99.90;;;;;;5013220;28;20037;-75
2021/09/21 08:51:38;;;;;;;1.67;1.58;;;19.90;99.90;;;;;;5013499;28;20026;-75
2021/09/21 08:54:04;;;;;;;3.03;2.05;;;19.90;99.90;;;;;;5013211;28;20492;-75
2021/09/21 08:56:29;;;;;;;2.17;1.98;;;19.90;99.90;;;;;;5013762;28;20089;-75
2021/09/21 08:59:01;;;;;;;1.60;1.50;;;19.80;99.90;;;;;;5013514;28;20421;-75
2021/09/21 09:01:47;;;;;;;1.67;1.50;;;19.80;99.90;;;;;;5013311;28;20045;-75
2021/09/21 09:04:14;;;;;;;2.80;1.70;;;19.80;99.90;;;;;;5013351;28;20558;-75
2021/09/21 09:06:54;;;;;;;1.80;1.10;;;19.80;99.90;;;;;;5012524;28;20491;-75
2021/09/21 09:09:22;;;;;;;1.40;1.00;;;19.90;99.90;;;;;;5013832;28;20052;-75
2021/09/21 09:11:53;;;;;;;1.58;1.48;;;20.00;99.90;;;;;;5011755;28;20037;-75
2021/09/21 09:14:22;;;;;;;1.40;1.30;;;20.00;99.90;;;;;;5012792;28;20104;-75
2021/09/21 09:16:56;;;;;;;5.38;1.40;;;20.00;99.90;;;;;;5013117;28;20036;-75
2021/09/21 09:19:32;;;;;;;1.10;1.10;;;20.10;99.90;;;;;;5012988;28;20032;-75
2021/09/21 09:22:10;;;;;;;1.73;1.50;;;20.00;99.90;;;;;;5013081;28;20121;-75
2021/09/21 09:24:50;;;;;;;4.72;1.88;;;20.00;99.90;;;;;;5012772;28;20033;-75
2021/09/21 09:27:17;;;;;;;1.50;1.40;;;19.90;99.90;;;;;;5013015;28;20024;-75
2021/09/21 09:29:57;;;;;;;1.27;1.27;;;19.90;99.90;;;;;;5012691;28;20078;-75
2021/09/21 09:32:24;;;;;;;1.42;1.33;;;19.90;99.90;;;;;;5012481;28;20026;-75
2021/09/21 09:34:50;;;;;;;1.60;1.50;;;19.90;99.90;;;;;;5012554;28;20504;-75
2021/09/21 09:37:17;;;;;;;2.03;1.50;;;19.90;99.90;;;;;;5012285;28;20029;-75
2021/09/21 09:39:45;;;;;;;1.58;1.48;;;19.90;99.90;;;;;;5012119;28;20034;-75
2021/09/21 09:42:12;;;;;;;1.48;1.38;;;19.90;99.90;;;;;;5012403;28;20018;-75
2021/09/21 09:44:40;;;;;;;1.63;1.40;;;20.00;99.90;;;;;;5012445;28;20025;-75
2021/09/21 09:47:07;;;;;;;1.65;1.40;;;20.10;99.90;;;;;;5012339;28;20067;-75
2021/09/21 09:49:42;;;;;;;2.10;1.60;;;20.10;99.90;;;;;;5012148;28;20038;-75
2021/09/21 09:52:16;;;;;;;1.90;1.80;;;20.10;99.90;;;;;;5011911;28;20129;-75
2021/09/21 09:54:45;;;;;;;1.88;1.77;;;20.20;99.90;;;;;;5012213;28;20025;-75
2021/09/21 09:57:12;;;;;;;2.03;1.50;;;20.20;99.20;;;;;;5010709;28;20033;-75
2021/09/21 09:59:39;;;;;;;2.80;1.67;;;20.20;99.90;;;;;;5010709;28;20053;-75
2021/09/21 10:02:05;;;;;;;2.53;1.63;;;20.20;99.90;;;;;;5012117;28;20030;-75
2021/09/21 10:04:31;;;;;;;1.90;1.75;;;20.20;99.70;;;;;;5011954;28;20048;-75
2021/09/21 10:06:57;;;;;;;5.18;1.63;;;20.20;99.80;;;;;;5011783;28;20025;-75
2021/09/21 10:09:23;;;;;;;1.52;1.30;;;20.30;99.90;;;;;;5010736;28;20034;-75
2021/09/21 10:11:55;;;;;;;2.55;1.88;;;20.40;99.90;;;;;;5011751;28;20030;-75
2021/09/21 10:14:22;;;;;;;1.90;1.80;;;20.50;99.90;;;;;;5014628;28;20030;-75
2021/09/21 10:17:03;;;;;;;2.40;2.20;;;20.50;99.80;;;;;;5010354;28;20025;-75
2021/09/21 10:19:30;;;;;;;2.25;1.85;;;20.50;99.60;;;;;;5011739;28;20029;-75
2021/09/21 10:21:56;;;;;;;3.05;2.15;;;20.50;99.90;;;;;;5011963;28;20045;-75
2021/09/21 10:24:39;;;;;;;2.17;1.92;;;20.70;99.90;;;;;;5011697;28;20081;-75
2021/09/21 10:27:08;;;;;;;2.03;1.92;;;20.80;99.90;;;;;;5011751;28;20421;-75
2021/09/21 10:29:34;;;;;;;4.18;2.22;;;20.90;99.90;;;;;;5011795;28;20030;-75
2021/09/21 10:32:00;;;;;;;3.25;2.20;;;20.80;97.70;;;;;;5011537;28;20037;-75
2021/09/21 10:34:26;;;;;;;1.90;1.70;;;20.90;97.20;;;;;;5011568;28;20036;-75
2021/09/21 10:36:59;;;;;;;1.80;1.70;;;20.90;97.20;;;;;;5011816;28;20105;-75
2021/09/21 10:39:26;;;;;;;1.80;1.70;;;21.00;97.40;;;;;;5011624;28;20057;-75
2021/09/21 10:41:57;;;;;;;2.72;1.70;;;21.10;96.70;;;;;;5011746;28;20030;-75
2021/09/21 10:44:24;;;;;;;5.85;2.40;;;21.10;94.40;;;;;;5011774;28;20029;-75
2021/09/21 10:47:00;;;;;;;2.03;1.77;;;21.10;94.00;;;;;;5011581;28;20072;-75
2021/09/21 10:49:32;;;;;;;3.78;1.90;;;21.20;95.70;;;;;;5011711;28;20056;-75
2021/09/21 10:52:02;;;;;;;3.88;1.55;;;21.30;96.40;;;;;;5011522;28;20018;-75
2021/09/21 10:54:29;;;;;;;2.00;1.90;;;21.50;96.50;;;;;;5012107;28;20030;-75
2021/09/21 10:57:04;;;;;;;1.42;1.33;;;21.60;93.70;;;;;;5010503;28;20033;-75
2021/09/21 10:59:30;;;;;;;2.20;2.00;;;21.60;94.30;;;;;;5010455;28;20033;-75
2021/09/21 11:01:56;;;;;;;1.95;1.75;;;21.50;91.90;;;;;;5011321;28;20021;-75
2021/09/21 11:04:22;;;;;;;1.25;1.17;;;21.40;91.60;;;;;;5011362;28;20084;-75
2021/09/21 11:06:48;;;;;;;3.65;1.88;;;21.40;93.20;;;;;;5012087;28;20018;-75
2021/09/21 11:09:26;;;;;;;6.32;1.60;;;21.40;91.80;;;;;;5013643;28;20060;-75
2021/09/21 11:12:03;;;;;;;1.83;1.60;;;21.40;93.40;;;;;;5015027;28;20028;-75
2021/09/21 11:14:29;;;;;;;1.58;1.48;;;21.40;93.60;;;;;;5015440;28;20429;-75
2021/09/21 11:16:55;;;;;;;1.73;1.60;;;21.40;92.10;;;;;;5015899;28;20599;-75
2021/09/21 11:19:31;;;;;;;1.63;1.50;;;21.50;92.90;;;;;;5015229;28;20037;-75
2021/09/21 11:22:06;;;;;;;1.77;1.67;;;21.70;93.30;;;;;;5015324;28;20397;-75
2021/09/21 11:24:34;;;;;;;2.00;1.90;;;21.70;92.30;;;;;;5013298;28;20109;-75
2021/09/21 11:27:04;;;;;;;1.40;1.30;;;21.80;91.80;;;;;;5014763;28;20364;-76
2021/09/21 11:29:30;;;;;;;1.50;1.40;;;21.80;91.20;;;;;;5014453;28;20018;-75
2021/09/21 11:31:56;;;;;;;1.40;1.30;;;21.70;90.60;;;;;;5014579;28;20075;-76
2021/09/21 11:34:28;;;;;;;1.38;1.27;;;21.70;90.30;;;;;;5014490;28;20484;-75
2021/09/21 11:36:54;;;;;;;1.80;1.70;;;21.60;90.70;;;;;;5014679;28;20579;-75
2021/09/21 11:39:20;;;;;;;4.43;2.00;;;21.60;91.70;;;;;;5014280;28;20029;-75
2021/09/21 11:41:53;;;;;;;2.38;2.28;;;21.60;91.30;;;;;;5014596;28;20384;-75
2021/09/21 11:44:18;;;;;;;2.20;2.10;;;21.70;91.50;;;;;;5014444;28;20081;-75
2021/09/21 11:46:44;;;;;;;4.63;1.90;;;21.70;92.10;;;;;;5014395;28;20029;-75
2021/09/21 11:49:10;;;;;;;2.13;2.03;;;21.70;93.10;;;;;;5014267;28;20025;-75
2021/09/21 11:51:38;;;;;;;2.33;2.13;;;21.80;92.50;;;;;;5013010;28;20487;-75
2021/09/21 11:54:06;;;;;;;2.10;1.90;;;21.90;91.50;;;;;;5014176;28;20056;-75
2021/09/21 11:56:32;;;;;;;3.10;1.60;;;21.80;89.60;;;;;;5014300;28;20026;-75
2021/09/21 11:58:59;;;;;;;1.50;1.40;;;21.90;87.90;;;;;;5013877;28;20022;-75
2021/09/21 12:01:27;;;;;;;2.03;1.77;;;21.90;88.00;;;;;;5014059;28;20027;-75
2021/09/21 12:03:53;;;;;;;1.65;1.55;;;22.00;90.20;;;;;;5014075;28;20427;-75
2021/09/21 12:06:33;;;;;;;2.78;1.27;;;22.10;88.90;;;;;;5013902;28;20217;-75
2021/09/21 12:09:01;;;;;;;1.15;1.15;;;22.20;89.60;;;;;;5016531;28;20022;-75
2021/09/21 12:11:27;;;;;;;1.10;1.10;;;22.30;87.60;;;;;;5012663;28;20529;-75
2021/09/21 12:13:53;;;;;;;1.50;1.40;;;22.40;88.70;;;;;;5013745;28;20037;-75
2021/09/21 12:16:20;;;;;;;2.15;1.55;;;22.50;85.50;;;;;;5013767;28;20105;-75
2021/09/21 12:18:46;;;;;;;1.52;1.45;;;22.30;83.30;;;;;;5012818;28;20026;-76
2021/09/21 12:21:17;;;;;;;1.52;1.42;;;22.30;85.50;;;;;;5013492;28;20040;-75
2021/09/21 12:23:45;;;;;;;2.20;1.90;;;22.30;85.60;;;;;;5012380;28;20369;-75
2021/09/21 12:26:13;;;;;;;1.63;1.50;;;22.50;84.40;;;;;;5013438;28;20476;-75
2021/09/21 12:28:44;;;;;;;2.47;2.30;;;22.50;82.70;;;;;;5013547;28;20025;-75
2021/09/21 12:31:13;;;;;;;1.90;1.80;;;22.40;83.10;;;;;;5012067;28;20439;-75
2021/09/21 12:33:40;;;;;;;1.65;1.30;;;22.40;82.00;;;;;;5013446;28;20026;-75
2021/09/21 12:36:18;;;;;;;1.10;1.10;;;22.40;83.10;;;;;;5011999;28;20044;-75
2021/09/21 12:38:43;;;;;;;1.60;1.50;;;22.50;83.70;;;;;;5013411;28;20058;-75
2021/09/21 12:41:11;;;;;;;1.45;1.10;;;22.60;81.40;;;;;;5011858;28;20057;-75
2021/09/21 12:43:45;;;;;;;2.92;1.48;;;22.50;80.90;;;;;;5013214;28;20046;-75
2021/09/21 12:46:11;;;;;;;1.05;1.05;;;22.60;81.80;;;;;;5013299;28;20021;-75
2021/09/21 12:48:44;;;;;;;1.48;1.38;;;22.60;84.10;;;;;;5013098;28;20026;-75
2021/09/21 12:51:11;;;;;;;2.67;1.33;;;22.70;85.00;;;;;;5012947;28;20037;-75
2021/09/21 12:53:38;;;;;;;3.15;1.25;;;22.80;83.00;;;;;;5012816;28;20049;-76
2021/09/21 12:56:10;;;;;;;1.33;1.23;;;22.70;81.10;;;;;;5013128;28;20064;-75
2021/09/21 12:58:36;;;;;;;;;;;22.80;82.00;;;;;;5013528;28;20026;-75
2021/09/21 13:01:04;;;;;;;3.05;1.63;;;22.70;80.40;;;;;;5012818;28;19920;-75